createdAt,value
2023-03-11T00:00:25.431Z,999.67
2023-03-11T00:01:25.406Z,999.68
2023-03-11T00:02:25.498Z,999.69
2023-03-11T00:03:25.367Z,999.62
2023-03-11T00:04:24.691Z,999.66
2023-03-11T00:05:25.440Z,999.70
2023-03-11T00:06:25.358Z,999.66
2023-03-11T00:07:24.656Z,999.79
2023-03-11T00:08:25.322Z,999.73
2023-03-11T00:09:25.329Z,999.82
2023-03-11T00:10:24.618Z,999.86
2023-03-11T00:11:24.619Z,999.86
2023-03-11T00:12:25.301Z,999.89
2023-03-11T00:13:24.616Z,999.88
2023-03-11T00:14:25.269Z,999.92
2023-03-11T00:15:25.518Z,999.92
2023-03-11T00:16:25.529Z,999.87
2023-03-11T00:17:25.501Z,999.95
2023-03-11T00:18:25.525Z,1000.01
2023-03-11T00:19:25.228Z,999.97
2023-03-11T00:20:25.471Z,999.99
2023-03-11T00:21:25.460Z,1000.04
2023-03-11T00:22:25.451Z,1000.02
2023-03-11T00:23:25.456Z,1000.06
2023-03-11T00:24:25.432Z,1000.07
2023-03-11T00:25:25.169Z,1000.11
2023-03-11T00:26:25.150Z,1000.09
2023-03-11T00:27:25.401Z,1000.09
2023-03-11T00:28:25.113Z,1000.13
2023-03-11T00:29:25.381Z,1000.08
2023-03-11T00:30:25.372Z,1000.13
2023-03-11T00:31:25.109Z,1000.09
2023-03-11T00:32:25.379Z,1000.16
2023-03-11T00:33:25.355Z,1000.21
2023-03-11T00:34:25.073Z,1000.22
2023-03-11T00:35:25.321Z,1000.21
2023-03-11T00:36:25.043Z,1000.22
2023-03-11T00:37:32.880Z,1000.26
2023-03-11T00:38:25.337Z,1000.27
2023-03-11T00:39:25.270Z,1000.32
2023-03-11T00:40:25.015Z,1000.28
2023-03-11T00:41:24.990Z,1000.34
2023-03-11T00:42:24.295Z,1000.34
2023-03-11T00:43:24.957Z,1000.30
2023-03-11T00:44:24.962Z,1000.35
2023-03-11T00:45:24.951Z,1000.34
2023-03-11T00:46:24.984Z,1000.38
2023-03-11T00:47:24.920Z,1000.38
2023-03-11T00:48:24.902Z,1000.38
2023-03-11T00:49:24.901Z,1000.36
2023-03-11T00:50:24.896Z,1000.41
2023-03-11T00:51:24.219Z,1000.43
2023-03-11T00:52:24.882Z,1000.46
2023-03-11T00:53:24.849Z,1000.51
2023-03-11T00:54:24.175Z,1000.48
2023-03-11T00:55:24.842Z,1000.52
2023-03-11T00:56:24.832Z,1000.50
2023-03-11T00:57:24.823Z,1000.59
2023-03-11T00:58:24.798Z,1000.59
2023-03-11T00:59:24.806Z,1000.63
2023-03-11T01:00:26.040Z,1000.62
2023-03-11T01:01:24.838Z,1000.68
2023-03-11T01:02:24.781Z,1000.70
2023-03-11T01:03:24.742Z,1000.71
2023-03-11T01:04:24.068Z,1000.68
2023-03-11T01:05:24.743Z,1000.72
2023-03-11T01:06:26.106Z,1000.76
2023-03-11T01:07:24.719Z,1000.77
2023-03-11T01:08:24.051Z,1000.71
2023-03-11T01:09:24.060Z,1000.73
2023-03-11T01:10:24.693Z,1000.72
2023-03-11T01:11:24.682Z,1000.69
2023-03-11T01:12:23.981Z,1000.71
2023-03-11T01:13:24.649Z,1000.68
2023-03-11T01:14:24.677Z,1000.70
2023-03-11T01:15:24.636Z,1000.75
2023-03-11T01:16:24.032Z,1000.76
2023-03-11T01:17:23.944Z,1000.75
2023-03-11T01:18:24.611Z,1000.75
2023-03-11T01:19:23.925Z,1000.81
2023-03-11T01:20:24.591Z,1000.78
2023-03-11T01:21:24.573Z,1000.82
2023-03-11T01:22:23.898Z,1000.84
2023-03-11T01:23:24.564Z,1000.91
2023-03-11T01:24:23.874Z,1000.90
2023-03-11T01:25:24.534Z,1000.98
2023-03-11T01:26:24.526Z,1000.99
2023-03-11T01:27:24.515Z,1001.08
2023-03-11T01:28:24.507Z,1001.03
2023-03-11T01:29:24.497Z,1001.03
2023-03-11T01:30:24.483Z,1001.09
2023-03-11T01:31:24.530Z,1001.11
2023-03-11T01:32:24.474Z,1001.07
2023-03-11T01:33:24.455Z,1001.12
2023-03-11T01:34:24.426Z,1001.06
2023-03-11T01:35:24.449Z,1001.08
2023-03-11T01:36:24.417Z,1001.13
2023-03-11T01:37:24.416Z,1001.17
2023-03-11T01:38:25.145Z,1001.19
2023-03-11T01:39:24.376Z,1001.20
2023-03-11T01:40:24.382Z,1001.29
2023-03-11T01:41:23.678Z,1001.24
2023-03-11T01:42:24.355Z,1001.26
2023-03-11T01:43:24.603Z,1001.25
2023-03-11T01:44:23.686Z,1001.25
2023-03-11T01:45:24.332Z,1001.21
2023-03-11T01:46:24.333Z,1001.27
2023-03-11T01:47:24.308Z,1001.25
2023-03-11T01:48:24.309Z,1001.20
2023-03-11T01:49:24.555Z,1001.25
2023-03-11T01:50:23.593Z,1001.25
2023-03-11T01:51:23.616Z,1001.30
2023-03-11T01:52:23.593Z,1001.30
2023-03-11T01:53:23.553Z,1001.32
2023-03-11T01:54:24.214Z,1001.28
2023-03-11T01:55:24.224Z,1001.33
2023-03-11T01:56:24.205Z,1001.32
2023-03-11T01:57:24.227Z,1001.30
2023-03-11T01:58:24.206Z,1001.33
2023-03-11T01:59:24.181Z,1001.31
2023-03-11T02:00:24.173Z,1001.39
2023-03-11T02:01:23.490Z,1001.37
2023-03-11T02:02:23.485Z,1001.38
2023-03-11T02:03:24.145Z,1001.43
2023-03-11T02:04:23.493Z,1001.42
2023-03-11T02:05:23.465Z,1001.45
2023-03-11T02:06:24.117Z,1001.40
2023-03-11T02:07:23.433Z,1001.43
2023-03-11T02:08:25.376Z,1001.37
2023-03-11T02:09:23.421Z,1001.38
2023-03-11T02:10:24.069Z,1001.40
2023-03-11T02:11:24.056Z,1001.31
2023-03-11T02:12:23.380Z,1001.38
2023-03-11T02:13:23.371Z,1001.39
2023-03-11T02:14:23.359Z,1001.41
2023-03-11T02:15:24.018Z,1001.43
2023-03-11T02:16:24.029Z,1001.48
2023-03-11T02:17:23.318Z,1001.47
2023-03-11T02:18:23.983Z,1001.45
2023-03-11T02:19:23.319Z,1001.41
2023-03-11T02:20:23.967Z,1001.41
2023-03-11T02:21:23.961Z,1001.45
2023-03-11T02:22:23.953Z,1001.43
2023-03-11T02:23:23.935Z,1001.48
2023-03-11T02:24:25.203Z,1001.48
2023-03-11T02:25:23.917Z,1001.48
2023-03-11T02:26:23.914Z,1001.47
2023-03-11T02:27:23.907Z,1001.50
2023-03-11T02:28:23.888Z,1001.49
2023-03-11T02:29:23.858Z,1001.45
2023-03-11T02:30:23.187Z,1001.52
2023-03-11T02:31:23.214Z,1001.50
2023-03-11T02:32:23.244Z,1001.49
2023-03-11T02:33:23.178Z,1001.47
2023-03-11T02:34:23.810Z,1001.46
2023-03-11T02:35:23.174Z,1001.50
2023-03-11T02:36:23.810Z,1001.50
2023-03-11T02:37:23.131Z,1001.54
2023-03-11T02:38:23.115Z,1001.52
2023-03-11T02:39:23.759Z,1001.54
2023-03-11T02:40:23.078Z,1001.57
2023-03-11T02:41:23.061Z,1001.55
2023-03-11T02:42:23.068Z,1001.54
2023-03-11T02:43:24.004Z,1001.53
2023-03-11T02:44:23.709Z,1001.55
2023-03-11T02:45:23.716Z,1001.61
2023-03-11T02:46:23.745Z,1001.60
2023-03-11T02:47:23.688Z,1001.58
2023-03-11T02:48:23.677Z,1001.61
2023-03-11T02:49:23.008Z,1001.60
2023-03-11T02:50:23.669Z,1001.63
2023-03-11T02:51:23.646Z,1001.57
2023-03-11T02:52:23.638Z,1001.61
2023-03-11T02:53:22.950Z,1001.65
2023-03-11T02:54:23.602Z,1001.63
2023-03-11T02:55:22.928Z,1001.64
2023-03-11T02:56:23.596Z,1001.66
2023-03-11T02:57:23.589Z,1001.65
2023-03-11T02:58:23.575Z,1001.66
2023-03-11T02:59:23.546Z,1001.68
2023-03-11T03:00:22.861Z,1001.72
2023-03-11T03:01:23.535Z,1001.68
2023-03-11T03:02:23.538Z,1001.67
2023-03-11T03:03:23.517Z,1001.64
2023-03-11T03:04:23.538Z,1001.74
2023-03-11T03:05:22.822Z,1001.64
2023-03-11T03:06:23.483Z,1001.70
2023-03-11T03:07:22.806Z,1001.65
2023-03-11T03:08:23.465Z,1001.67
2023-03-11T03:09:23.433Z,1001.68
2023-03-11T03:10:23.445Z,1001.70
2023-03-11T03:11:23.441Z,1001.73
2023-03-11T03:12:22.746Z,1001.73
2023-03-11T03:13:22.735Z,1001.75
2023-03-11T03:14:23.386Z,1001.77
2023-03-11T03:15:23.384Z,1001.79
2023-03-11T03:16:23.388Z,1001.84
2023-03-11T03:17:23.396Z,1001.82
2023-03-11T03:18:23.355Z,1001.85
2023-03-11T03:19:23.346Z,1001.84
2023-03-11T03:20:22.708Z,1001.87
2023-03-11T03:21:22.655Z,1001.86
2023-03-11T03:22:23.316Z,1001.88
2023-03-11T03:23:23.307Z,1001.93
2023-03-11T03:24:22.632Z,1001.91
2023-03-11T03:25:22.629Z,1001.98
2023-03-11T03:26:22.640Z,1001.94
2023-03-11T03:27:23.265Z,1001.90
2023-03-11T03:28:23.256Z,1001.94
2023-03-11T03:29:23.227Z,1001.92
2023-03-11T03:30:23.242Z,1001.97
2023-03-11T03:31:23.295Z,1001.95
2023-03-11T03:32:23.239Z,1002.00
2023-03-11T03:33:23.207Z,1002.01
2023-03-11T03:34:23.178Z,1002.00
2023-03-11T03:35:22.523Z,1002.01
2023-03-11T03:36:23.170Z,1002.03
2023-03-11T03:37:23.158Z,1002.03
2023-03-11T03:38:23.158Z,1002.06
2023-03-11T03:39:23.118Z,1002.06
2023-03-11T03:40:23.135Z,1002.08
2023-03-11T03:41:22.434Z,1002.12
2023-03-11T03:42:24.357Z,1002.10
2023-03-11T03:43:23.102Z,1002.10
2023-03-11T03:44:23.073Z,1002.17
2023-03-11T03:45:23.078Z,1002.19
2023-03-11T03:46:22.436Z,1002.19
2023-03-11T03:47:23.280Z,1002.23
2023-03-11T03:48:23.051Z,1002.22
2023-03-11T03:49:22.373Z,1002.24
2023-03-11T03:50:23.039Z,1002.27
2023-03-11T03:51:23.021Z,1002.24
2023-03-11T03:52:23.011Z,1002.25
2023-03-11T03:53:22.991Z,1002.25
2023-03-11T03:54:22.321Z,1002.28
2023-03-11T03:55:22.981Z,1002.31
2023-03-11T03:56:23.241Z,1002.27
2023-03-11T03:57:24.234Z,1002.28
2023-03-11T03:58:22.948Z,1002.26
2023-03-11T03:59:22.279Z,1002.34
2023-03-11T04:00:22.224Z,1002.28
2023-03-11T04:01:22.928Z,1002.34
2023-03-11T04:02:22.975Z,1002.34
2023-03-11T04:03:22.948Z,1002.36
2023-03-11T04:04:22.228Z,1002.35
2023-03-11T04:05:22.182Z,1002.34
2023-03-11T04:06:22.196Z,1002.38
2023-03-11T04:07:22.854Z,1002.41
2023-03-11T04:08:22.844Z,1002.42
2023-03-11T04:09:22.816Z,1002.43
2023-03-11T04:10:22.840Z,1002.40
2023-03-11T04:11:22.813Z,1002.43
2023-03-11T04:12:22.798Z,1002.43
2023-03-11T04:13:22.788Z,1002.47
2023-03-11T04:14:22.751Z,1002.46
2023-03-11T04:15:22.759Z,1002.53
2023-03-11T04:16:22.857Z,1002.54
2023-03-11T04:17:22.086Z,1002.52
2023-03-11T04:18:22.069Z,1002.54
2023-03-11T04:19:22.081Z,1002.58
2023-03-11T04:20:22.077Z,1002.62
2023-03-11T04:21:22.704Z,1002.62
2023-03-11T04:22:22.028Z,1002.62
2023-03-11T04:23:22.689Z,1002.61
2023-03-11T04:24:23.929Z,1002.62
2023-03-11T04:25:22.649Z,1002.62
2023-03-11T04:26:22.650Z,1002.61
2023-03-11T04:27:21.958Z,1002.63
2023-03-11T04:28:21.942Z,1002.65
2023-03-11T04:29:22.622Z,1002.61
2023-03-11T04:30:21.948Z,1002.60
2023-03-11T04:31:21.947Z,1002.67
2023-03-11T04:32:21.929Z,1002.69
2023-03-11T04:33:22.578Z,1002.67
2023-03-11T04:34:21.894Z,1002.72
2023-03-11T04:35:22.637Z,1002.74
2023-03-11T04:36:22.549Z,1002.74
2023-03-11T04:37:22.553Z,1002.70
2023-03-11T04:38:22.525Z,1002.78
2023-03-11T04:39:22.518Z,1002.73
2023-03-11T04:40:22.485Z,1002.77
2023-03-11T04:41:21.795Z,1002.79
2023-03-11T04:42:22.480Z,1002.80
2023-03-11T04:43:22.465Z,1002.83
2023-03-11T04:44:21.765Z,1002.78
2023-03-11T04:45:22.435Z,1002.80
2023-03-11T04:46:22.619Z,1002.85
2023-03-11T04:47:21.742Z,1002.85
2023-03-11T04:48:22.416Z,1002.87
2023-03-11T04:49:22.405Z,1002.89
2023-03-11T04:50:22.374Z,1002.89
2023-03-11T04:51:22.386Z,1002.89
2023-03-11T04:52:22.373Z,1002.91
2023-03-11T04:53:21.678Z,1002.92
2023-03-11T04:54:21.686Z,1002.92
2023-03-11T04:55:22.322Z,1002.97
2023-03-11T04:56:22.338Z,1002.94
2023-03-11T04:57:22.324Z,1002.92
2023-03-11T04:58:21.623Z,1002.93
2023-03-11T04:59:22.304Z,1002.98
2023-03-11T05:00:22.277Z,1002.94
2023-03-11T05:01:22.361Z,1002.99
2023-03-11T05:02:22.265Z,1003.00
2023-03-11T05:03:22.313Z,1002.99
2023-03-11T05:04:22.293Z,1003.04
2023-03-11T05:05:21.561Z,1003.04
2023-03-11T05:06:22.229Z,1003.09
2023-03-11T05:07:22.215Z,1003.08
2023-03-11T05:08:22.196Z,1003.12
2023-03-11T05:09:22.204Z,1003.17
2023-03-11T05:10:22.198Z,1003.16
2023-03-11T05:11:22.174Z,1003.13
2023-03-11T05:12:22.157Z,1003.07
2023-03-11T05:13:21.457Z,1003.08
2023-03-11T05:14:22.141Z,1003.09
2023-03-11T05:15:22.114Z,1003.09
2023-03-11T05:16:21.490Z,1003.19
2023-03-11T05:17:22.120Z,1003.12
2023-03-11T05:18:22.099Z,1003.21
2023-03-11T05:19:21.413Z,1003.20
2023-03-11T05:20:22.064Z,1003.19
2023-03-11T05:21:21.379Z,1003.17
2023-03-11T05:22:21.390Z,1003.20
2023-03-11T05:23:22.054Z,1003.22
2023-03-11T05:24:22.072Z,1003.27
2023-03-11T05:25:21.393Z,1003.31
2023-03-11T05:26:22.010Z,1003.34
2023-03-11T05:27:22.010Z,1003.35
2023-03-11T05:28:21.318Z,1003.40
2023-03-11T05:29:21.979Z,1003.39
2023-03-11T05:30:21.308Z,1003.38
2023-03-11T05:31:22.019Z,1003.36
2023-03-11T05:32:21.997Z,1003.36
2023-03-11T05:33:21.947Z,1003.41
2023-03-11T05:34:21.262Z,1003.42
2023-03-11T05:35:21.311Z,1003.41
2023-03-11T05:36:21.911Z,1003.45
2023-03-11T05:37:21.899Z,1003.46
2023-03-11T05:38:21.212Z,1003.47
2023-03-11T05:39:21.203Z,1003.55
2023-03-11T05:40:21.857Z,1003.58
2023-03-11T05:41:21.867Z,1003.58
2023-03-11T05:42:22.611Z,1003.57
2023-03-11T05:43:21.853Z,1003.63
2023-03-11T05:44:21.842Z,1003.60
2023-03-11T05:45:21.808Z,1003.59
2023-03-11T05:46:21.180Z,1003.60
2023-03-11T05:47:21.808Z,1003.59
2023-03-11T05:48:21.794Z,1003.69
2023-03-11T05:49:21.791Z,1003.64
2023-03-11T05:50:21.760Z,1003.64
2023-03-11T05:51:21.770Z,1003.64
2023-03-11T05:52:21.066Z,1003.68
2023-03-11T05:53:21.568Z,1003.67
2023-03-11T05:54:21.051Z,1003.66
2023-03-11T05:55:21.707Z,1003.71
2023-03-11T05:56:21.065Z,1003.70
2023-03-11T05:57:21.041Z,1003.66
2023-03-11T05:58:21.101Z,1003.69
2023-03-11T05:59:21.041Z,1003.65
2023-03-11T06:00:21.653Z,1003.71
2023-03-11T06:01:21.655Z,1003.73
2023-03-11T06:02:21.646Z,1003.68
2023-03-11T06:03:21.642Z,1003.76
2023-03-11T06:04:21.084Z,1003.69
2023-03-11T06:05:21.051Z,1003.73
2023-03-11T06:06:21.607Z,1003.77
2023-03-11T06:07:20.905Z,1003.82
2023-03-11T06:08:21.585Z,1003.78
2023-03-11T06:09:21.577Z,1003.83
2023-03-11T06:10:20.884Z,1003.84
2023-03-11T06:11:21.577Z,1003.83
2023-03-11T06:12:21.544Z,1003.82
2023-03-11T06:13:20.845Z,1003.80
2023-03-11T06:14:21.525Z,1003.83
2023-03-11T06:15:21.496Z,1003.86
2023-03-11T06:16:21.556Z,1003.86
2023-03-11T06:17:21.489Z,1003.90
2023-03-11T06:18:21.475Z,1003.92
2023-03-11T06:19:20.788Z,1003.89
2023-03-11T06:20:21.444Z,1003.87
2023-03-11T06:21:20.760Z,1003.89
2023-03-11T06:22:20.764Z,1003.88
2023-03-11T06:23:21.436Z,1003.90
2023-03-11T06:24:20.735Z,1003.85
2023-03-11T06:25:21.389Z,1003.91
2023-03-11T06:26:21.394Z,1003.90
2023-03-11T06:27:21.394Z,1003.90
2023-03-11T06:28:20.706Z,1003.96
2023-03-11T06:29:20.678Z,1003.91
2023-03-11T06:30:21.336Z,1003.98
2023-03-11T06:31:21.371Z,1004.00
2023-03-11T06:32:21.410Z,1003.99
2023-03-11T06:33:20.636Z,1004.03
2023-03-11T06:34:21.316Z,1004.05
2023-03-11T06:35:20.649Z,1004.06
2023-03-11T06:36:21.295Z,1004.15
2023-03-11T06:37:21.291Z,1004.11
2023-03-11T06:38:21.278Z,1004.16
2023-03-11T06:39:20.570Z,1004.23
2023-03-11T06:40:20.584Z,1004.22
2023-03-11T06:41:21.246Z,1004.21
2023-03-11T06:42:21.236Z,1004.24
2023-03-11T06:43:21.218Z,1004.23
2023-03-11T06:44:20.522Z,1004.19
2023-03-11T06:45:21.178Z,1004.23
2023-03-11T06:46:20.638Z,1004.25
2023-03-11T06:47:21.179Z,1004.26
2023-03-11T06:48:21.167Z,1004.32
2023-03-11T06:49:21.160Z,1004.38
2023-03-11T06:50:21.142Z,1004.35
2023-03-11T06:51:20.437Z,1004.41
2023-03-11T06:52:21.127Z,1004.42
2023-03-11T06:53:21.214Z,1004.46
2023-03-11T06:54:20.421Z,1004.59
2023-03-11T06:55:20.417Z,1004.65
2023-03-11T06:56:21.118Z,1004.66
2023-03-11T06:57:20.390Z,1004.74
2023-03-11T06:58:21.060Z,1004.78
2023-03-11T06:59:21.054Z,1004.82
2023-03-11T07:00:21.037Z,1004.85
2023-03-11T07:01:21.092Z,1004.84
2023-03-11T07:02:21.025Z,1004.81
2023-03-11T07:03:20.329Z,1004.87
2023-03-11T07:04:20.351Z,1004.90
2023-03-11T07:05:20.329Z,1004.90
2023-03-11T07:06:20.979Z,1004.97
2023-03-11T07:07:20.972Z,1004.94
2023-03-11T07:08:20.960Z,1004.92
2023-03-11T07:09:21.171Z,1004.96
2023-03-11T07:10:20.380Z,1004.97
2023-03-11T07:11:20.292Z,1004.99
2023-03-11T07:12:20.918Z,1005.00
2023-03-11T07:13:20.909Z,1005.00
2023-03-11T07:14:22.168Z,1005.02
2023-03-11T07:15:20.868Z,1005.03
2023-03-11T07:16:20.215Z,1005.07
2023-03-11T07:17:21.300Z,1005.13
2023-03-11T07:18:21.170Z,1005.16
2023-03-11T07:19:20.858Z,1005.15
2023-03-11T07:20:20.290Z,1005.19
2023-03-11T07:21:21.201Z,1005.19
2023-03-11T07:22:20.122Z,1005.14
2023-03-11T07:23:20.809Z,1005.18
2023-03-11T07:24:21.091Z,1005.18
2023-03-11T07:25:20.793Z,1005.17
2023-03-11T07:26:20.758Z,1005.21
2023-03-11T07:27:20.905Z,1005.24
2023-03-11T07:28:20.220Z,1005.23
2023-03-11T07:29:20.064Z,1005.22
2023-03-11T07:30:20.617Z,1005.24
2023-03-11T07:31:21.116Z,1005.25
2023-03-11T07:32:35.487Z,1005.25
2023-03-11T07:33:20.888Z,1005.28
2023-03-11T07:34:20.012Z,1005.26
2023-03-11T07:35:20.677Z,1005.32
2023-03-11T07:36:20.652Z,1005.29
2023-03-11T07:37:20.654Z,1005.30
2023-03-11T07:38:19.959Z,1005.34
2023-03-11T07:39:20.633Z,1005.35
2023-03-11T07:40:21.224Z,1005.33
2023-03-11T07:41:20.585Z,1005.40
2023-03-11T07:42:20.714Z,1005.43
2023-03-11T07:43:20.999Z,1005.45
2023-03-11T07:44:20.582Z,1005.46
2023-03-11T07:45:20.817Z,1005.47
2023-03-11T07:46:20.580Z,1005.49
2023-03-11T07:47:20.848Z,1005.47
2023-03-11T07:48:20.743Z,1005.51
2023-03-11T07:49:20.539Z,1005.55
2023-03-11T07:50:19.828Z,1005.50
2023-03-11T07:51:19.829Z,1005.50
2023-03-11T07:52:19.809Z,1005.52
2023-03-11T07:53:20.480Z,1005.50
2023-03-11T07:54:19.855Z,1005.54
2023-03-11T07:55:21.283Z,1005.54
2023-03-11T07:56:20.149Z,1005.56
2023-03-11T07:57:20.823Z,1005.59
2023-03-11T07:58:20.420Z,1005.60
2023-03-11T07:59:20.411Z,1005.54
2023-03-11T08:00:20.541Z,1005.62
2023-03-11T08:01:20.428Z,1005.78
2023-03-11T08:02:19.873Z,1005.90
2023-03-11T08:03:19.824Z,1005.98
2023-03-11T08:04:20.361Z,1006.01
2023-03-11T08:05:20.340Z,1006.12
2023-03-11T08:06:20.321Z,1006.11
2023-03-11T08:07:19.639Z,1006.11
2023-03-11T08:08:19.634Z,1006.06
2023-03-11T08:09:20.302Z,1006.07
2023-03-11T08:10:20.307Z,1006.06
2023-03-11T08:11:20.266Z,1006.12
2023-03-11T08:12:20.275Z,1006.15
2023-03-11T08:13:19.574Z,1006.10
2023-03-11T08:14:20.291Z,1006.17
2023-03-11T08:15:20.244Z,1006.17
2023-03-11T08:16:20.221Z,1006.23
2023-03-11T08:17:20.225Z,1006.32
2023-03-11T08:18:20.206Z,1006.39
2023-03-11T08:19:20.201Z,1006.34
2023-03-11T08:20:19.514Z,1006.27
2023-03-11T08:21:20.157Z,1006.22
2023-03-11T08:22:20.173Z,1006.26
2023-03-11T08:23:20.169Z,1006.30
2023-03-11T08:24:19.482Z,1006.28
2023-03-11T08:25:19.459Z,1006.30
2023-03-11T08:26:19.464Z,1006.34
2023-03-11T08:27:20.311Z,1006.36
2023-03-11T08:28:20.175Z,1006.40
2023-03-11T08:29:20.096Z,1006.43
2023-03-11T08:30:20.080Z,1006.45
2023-03-11T08:31:20.098Z,1006.46
2023-03-11T08:32:20.079Z,1006.48
2023-03-11T08:33:19.386Z,1006.46
2023-03-11T08:34:20.049Z,1006.52
2023-03-11T08:35:20.027Z,1006.54
2023-03-11T08:36:20.008Z,1006.59
2023-03-11T08:37:20.011Z,1006.61
2023-03-11T08:38:19.989Z,1006.64
2023-03-11T08:39:19.325Z,1006.65
2023-03-11T08:40:19.290Z,1006.70
2023-03-11T08:41:19.994Z,1006.74
2023-03-11T08:42:19.267Z,1006.73
2023-03-11T08:43:19.941Z,1006.78
2023-03-11T08:44:19.250Z,1006.72
2023-03-11T08:45:19.232Z,1006.77
2023-03-11T08:46:19.962Z,1006.84
2023-03-11T08:47:19.231Z,1006.86
2023-03-11T08:48:20.142Z,1006.83
2023-03-11T08:49:19.872Z,1006.84
2023-03-11T08:50:19.884Z,1006.92
2023-03-11T08:51:19.215Z,1006.96
2023-03-11T08:52:19.843Z,1006.88
2023-03-11T08:53:19.205Z,1006.78
2023-03-11T08:54:21.081Z,1006.76
2023-03-11T08:55:19.125Z,1006.83
2023-03-11T08:56:19.804Z,1006.85
2023-03-11T08:57:19.787Z,1006.88
2023-03-11T08:58:19.775Z,1006.99
2023-03-11T08:59:19.780Z,1006.99
2023-03-11T09:00:19.077Z,1007.03
2023-03-11T09:01:19.716Z,1006.95
2023-03-11T09:02:19.744Z,1006.81
2023-03-11T09:03:19.729Z,1006.76
2023-03-11T09:04:19.028Z,1006.59
2023-03-11T09:05:19.018Z,1006.61
2023-03-11T09:06:19.016Z,1006.72
2023-03-11T09:07:19.658Z,1006.75
2023-03-11T09:08:19.672Z,1006.73
2023-03-11T09:09:19.662Z,1006.76
2023-03-11T09:10:19.645Z,1006.72
2023-03-11T09:11:18.947Z,1006.66
2023-03-11T09:12:19.609Z,1006.61
2023-03-11T09:13:18.956Z,1006.62
2023-03-11T09:14:19.603Z,1006.60
2023-03-11T09:15:19.592Z,1006.43
2023-03-11T09:16:19.678Z,1006.58
2023-03-11T09:17:19.548Z,1006.62
2023-03-11T09:18:19.557Z,1006.63
2023-03-11T09:19:18.879Z,1006.71
2023-03-11T09:20:19.557Z,1006.67
2023-03-11T09:21:18.873Z,1006.60
2023-03-11T09:22:19.511Z,1006.61
2023-03-11T09:23:19.505Z,1006.66
2023-03-11T09:24:19.495Z,1006.69
2023-03-11T09:25:19.483Z,1006.66
2023-03-11T09:26:19.481Z,1006.60
2023-03-11T09:27:19.443Z,1006.61
2023-03-11T09:28:19.453Z,1006.50
2023-03-11T09:29:18.753Z,1006.49
2023-03-11T09:30:18.763Z,1006.46
2023-03-11T09:31:19.468Z,1006.45
2023-03-11T09:32:18.753Z,1006.45
2023-03-11T09:33:19.408Z,1006.42
2023-03-11T09:34:18.697Z,1006.48
2023-03-11T09:35:18.687Z,1006.48
2023-03-11T09:36:18.674Z,1006.44
2023-03-11T09:37:18.683Z,1006.41
2023-03-11T09:38:19.346Z,1006.42
2023-03-11T09:39:19.259Z,1006.46
2023-03-11T09:40:19.327Z,1006.43
2023-03-11T09:41:18.645Z,1006.42
2023-03-11T09:42:18.639Z,1006.39
2023-03-11T09:43:19.293Z,1006.43
2023-03-11T09:44:18.590Z,1006.42
2023-03-11T09:45:19.281Z,1006.41
2023-03-11T09:46:19.288Z,1006.46
2023-03-11T09:47:19.230Z,1006.46
2023-03-11T09:48:20.528Z,1006.49
2023-03-11T09:49:19.236Z,1006.52
2023-03-11T09:50:19.212Z,1006.54
2023-03-11T09:51:18.570Z,1006.52
2023-03-11T09:52:19.255Z,1006.57
2023-03-11T09:53:18.504Z,1006.56
2023-03-11T09:54:19.176Z,1006.54
2023-03-11T09:55:18.496Z,1006.57
2023-03-11T09:56:19.147Z,1006.59
2023-03-11T09:57:19.121Z,1006.64
2023-03-11T09:58:18.460Z,1006.60
2023-03-11T09:59:19.128Z,1006.60
2023-03-11T10:00:19.111Z,1006.63
2023-03-11T10:01:19.100Z,1006.64
2023-03-11T10:02:18.607Z,1006.63
2023-03-11T10:03:19.168Z,1006.65
2023-03-11T10:04:18.479Z,1006.69
2023-03-11T10:05:18.384Z,1006.67
2023-03-11T10:06:19.045Z,1006.70
2023-03-11T10:07:18.363Z,1006.73
2023-03-11T10:08:19.023Z,1006.71
2023-03-11T10:09:18.344Z,1006.72
2023-03-11T10:10:18.320Z,1006.80
2023-03-11T10:11:18.990Z,1006.81
2023-03-11T10:12:18.304Z,1006.78
2023-03-11T10:13:18.972Z,1006.79
2023-03-11T10:14:18.283Z,1006.79
2023-03-11T10:15:18.256Z,1006.81
2023-03-11T10:16:18.965Z,1006.82
2023-03-11T10:17:18.262Z,1006.80
2023-03-11T10:18:18.235Z,1006.76
2023-03-11T10:19:18.905Z,1006.79
2023-03-11T10:20:18.893Z,1006.75
2023-03-11T10:21:18.198Z,1006.79
2023-03-11T10:22:18.212Z,1006.80
2023-03-11T10:23:18.864Z,1006.79
2023-03-11T10:24:18.848Z,1006.79
2023-03-11T10:25:18.837Z,1006.78
2023-03-11T10:26:18.832Z,1006.76
2023-03-11T10:27:18.148Z,1006.73
2023-03-11T10:28:18.123Z,1006.78
2023-03-11T10:29:18.807Z,1006.74
2023-03-11T10:30:18.788Z,1006.83
2023-03-11T10:31:18.139Z,1006.76
2023-03-11T10:32:18.799Z,1006.85
2023-03-11T10:33:18.064Z,1006.89
2023-03-11T10:34:18.071Z,1006.88
2023-03-11T10:35:18.080Z,1006.87
2023-03-11T10:36:18.718Z,1006.87
2023-03-11T10:37:18.690Z,1006.89
2023-03-11T10:38:18.016Z,1006.85
2023-03-11T10:39:18.683Z,1006.86
2023-03-11T10:40:18.060Z,1006.86
2023-03-11T10:41:18.665Z,1006.90
2023-03-11T10:42:18.042Z,1006.89
2023-03-11T10:43:18.641Z,1006.89
2023-03-11T10:44:17.985Z,1006.88
2023-03-11T10:45:18.623Z,1006.87
2023-03-11T10:46:18.002Z,1006.90
2023-03-11T10:47:18.580Z,1006.85
2023-03-11T10:48:18.585Z,1006.88
2023-03-11T10:49:17.954Z,1006.86
2023-03-11T10:50:17.921Z,1006.85
2023-03-11T10:51:18.563Z,1006.87
2023-03-11T10:52:17.901Z,1006.89
2023-03-11T10:53:17.901Z,1006.91
2023-03-11T10:54:18.526Z,1006.96
2023-03-11T10:55:17.844Z,1006.95
2023-03-11T10:56:17.815Z,1006.94
2023-03-11T10:57:17.825Z,1006.92
2023-03-11T10:58:17.816Z,1006.89
2023-03-11T10:59:18.466Z,1006.92
2023-03-11T11:00:18.459Z,1006.92
2023-03-11T11:01:17.856Z,1006.90
2023-03-11T11:02:18.424Z,1006.93
2023-03-11T11:03:18.428Z,1006.95
2023-03-11T11:04:18.442Z,1006.94
2023-03-11T11:05:17.725Z,1006.97
2023-03-11T11:06:18.406Z,1007.03
2023-03-11T11:07:18.371Z,1007.04
2023-03-11T11:08:18.371Z,1007.01
2023-03-11T11:09:18.381Z,1006.97
2023-03-11T11:10:18.399Z,1007.03
2023-03-11T11:11:18.351Z,1007.04
2023-03-11T11:12:17.681Z,1006.98
2023-03-11T11:13:17.723Z,1006.99
2023-03-11T11:14:18.318Z,1006.97
2023-03-11T11:15:18.302Z,1006.93
2023-03-11T11:16:17.678Z,1006.91
2023-03-11T11:17:18.263Z,1006.91
2023-03-11T11:18:18.265Z,1006.91
2023-03-11T11:19:17.586Z,1006.90
2023-03-11T11:20:17.585Z,1006.92
2023-03-11T11:21:17.577Z,1006.90
2023-03-11T11:22:17.573Z,1006.88
2023-03-11T11:23:18.215Z,1006.91
2023-03-11T11:24:18.210Z,1006.90
2023-03-11T11:25:17.519Z,1006.88
2023-03-11T11:26:18.187Z,1006.89
2023-03-11T11:27:18.171Z,1006.89
2023-03-11T11:28:18.166Z,1006.87
2023-03-11T11:29:18.156Z,1006.83
2023-03-11T11:30:17.460Z,1006.84
2023-03-11T11:31:18.150Z,1006.80
2023-03-11T11:32:17.501Z,1006.80
2023-03-11T11:33:17.439Z,1006.81
2023-03-11T11:34:18.098Z,1006.82
2023-03-11T11:35:18.113Z,1006.78
2023-03-11T11:36:17.392Z,1006.79
2023-03-11T11:37:18.048Z,1006.84
2023-03-11T11:38:18.081Z,1006.85
2023-03-11T11:39:18.046Z,1006.88
2023-03-11T11:40:18.098Z,1006.85
2023-03-11T11:41:18.025Z,1006.80
2023-03-11T11:42:17.996Z,1006.82
2023-03-11T11:43:18.020Z,1006.78
2023-03-11T11:44:17.995Z,1006.82
2023-03-11T11:45:18.017Z,1006.80
2023-03-11T11:46:18.056Z,1006.79
2023-03-11T11:47:17.944Z,1006.78
2023-03-11T11:48:17.956Z,1006.76
2023-03-11T11:49:17.938Z,1006.77
2023-03-11T11:50:18.033Z,1006.79
2023-03-11T11:51:17.248Z,1006.78
2023-03-11T11:52:17.227Z,1006.81
2023-03-11T11:53:17.893Z,1006.77
2023-03-11T11:54:17.886Z,1006.76
2023-03-11T11:55:17.203Z,1006.80
2023-03-11T11:56:17.858Z,1006.79
2023-03-11T11:57:17.898Z,1006.77
2023-03-11T11:58:17.837Z,1006.86
2023-03-11T11:59:17.826Z,1006.80
2023-03-11T12:00:17.160Z,1006.83
2023-03-11T12:01:17.136Z,1006.83
2023-03-11T12:02:17.808Z,1006.81
2023-03-11T12:03:17.852Z,1006.79
2023-03-11T12:04:17.078Z,1006.78
2023-03-11T12:05:17.095Z,1006.78
2023-03-11T12:06:17.062Z,1006.79